Time;durP1;ratioP1;P1;durP2;ratioP2;P2;SDS_P1;SDS_P2;PMS_P1;PMS_P2;Temp;Humidity;BMP_temperature;BMP_pressure;BME280_temperature;BME280_humidity;BME280_pressure;Samples;Min_cycle;Max_cycle;Signal;HPM_P1;HPM_P2
2022/05/09 00:01:24;;;;;;;7.67;5.97;;;;;;;14.71;100.00;99003.59;1624141;87;28036;-83
2022/05/09 00:03:50;;;;;;;7.53;5.95;;;;;;;14.78;100.00;99003.95;1625082;86;28143;-82
2022/05/09 00:06:17;;;;;;;10.23;6.65;;;;;;;14.78;100.00;99007.91;1625561;87;28125;-82
2022/05/09 00:08:43;;;;;;;8.65;6.10;;;;;;;14.71;100.00;99005.38;1624177;86;28060;-82
2022/05/09 00:11:11;;;;;;;8.35;6.72;;;;;;;14.67;100.00;99002.16;1624321;86;28077;-82
2022/05/09 00:13:38;;;;;;;10.65;6.90;;;;;;;14.62;100.00;98995.05;1622539;86;28120;-82
2022/05/09 00:16:05;;;;;;;8.10;6.35;;;;;;;14.57;100.00;99000.69;1624312;86;28019;-82
2022/05/09 00:18:32;;;;;;;10.30;6.58;;;;;;;14.59;100.00;98999.26;1624955;86;28194;-82
2022/05/09 00:20:58;;;;;;;11.88;6.60;;;;;;;14.59;100.00;98996.63;1622802;87;28084;-83
2022/05/09 00:23:26;;;;;;;8.85;6.78;;;;;;;14.54;100.00;98998.77;1621375;87;28021;-84
2022/05/09 00:25:53;;;;;;;9.60;6.70;;;;;;;14.52;100.00;98998.88;1623450;87;28088;-84
2022/05/09 00:28:19;;;;;;;10.45;6.12;;;;;;;14.54;100.00;98998.30;1622445;86;28084;-84
2022/05/09 00:30:46;;;;;;;9.10;6.83;;;;;;;14.57;100.00;99000.69;1622671;87;28048;-84
2022/05/09 00:33:12;;;;;;;8.85;6.55;;;;;;;14.61;100.00;99002.15;1625574;86;28113;-84
2022/05/09 00:35:40;;;;;;;8.60;5.92;;;;;;;14.60;100.00;98998.31;1623183;86;28117;-84
2022/05/09 00:38:08;;;;;;;8.55;6.25;;;;;;;14.55;100.00;98999.98;1623952;87;28253;-84
2022/05/09 00:40:35;;;;;;;9.50;7.35;;;;;;;14.47;100.00;98998.88;1624005;86;28154;-83
2022/05/09 00:43:02;;;;;;;14.50;8.20;;;;;;;14.40;100.00;99001.13;1625188;86;28170;-83
2022/05/09 00:45:29;;;;;;;13.78;7.75;;;;;;;14.30;100.00;99001.45;1623013;86;28124;-83
2022/05/09 00:47:55;;;;;;;8.95;6.37;;;;;;;14.21;100.00;99003.47;1623343;86;28099;-84
2022/05/09 00:50:28;;;;;;;8.98;6.28;;;;;;;14.17;100.00;99005.98;1622552;87;27997;-83
2022/05/09 00:53:03;;;;;;;8.78;6.60;;;;;;;14.15;100.00;98994.72;1624411;86;28017;-84
2022/05/09 00:55:44;;;;;;;7.08;5.92;;;;;;;14.15;100.00;98998.66;1622883;87;28151;-84
2022/05/09 00:58:14;;;;;;;10.08;6.40;;;;;;;14.16;100.00;98999.88;1621010;86;28093;-84
2022/05/09 01:00:44;;;;;;;10.25;7.08;;;;;;;14.16;100.00;98993.30;1624945;86;28131;-84
2022/05/09 01:03:18;;;;;;;8.25;6.75;;;;;;;14.17;100.00;98994.98;1623792;87;28073;-84
2022/05/09 01:05:50;;;;;;;10.05;7.95;;;;;;;14.10;100.00;98998.17;1624510;86;28184;-83
2022/05/09 01:08:13;;;;;;;9.50;7.05;;;;;;;14.03;100.00;98995.16;1625920;86;28092;-83
2022/05/09 01:10:41;;;;;;;9.18;6.67;;;;;;;13.98;100.00;99007.82;1627751;86;28226;-83
2022/05/09 01:13:11;;;;;;;11.63;7.53;;;;;;;13.87;100.00;99005.15;1625114;86;28076;-83
2022/05/09 01:15:40;;;;;;;10.85;7.50;;;;;;;13.74;100.00;99016.23;1625259;86;28175;-83
2022/05/09 01:18:12;;;;;;;8.25;6.58;;;;;;;13.64;100.00;99008.63;1624224;86;28147;-83
2022/05/09 01:20:38;;;;;;;9.70;7.37;;;;;;;13.62;100.00;99007.44;1624103;86;28163;-83
2022/05/09 01:23:07;;;;;;;12.23;7.67;;;;;;;13.74;100.00;99009.18;1621147;86;28188;-83
2022/05/09 01:25:33;;;;;;;11.25;7.20;;;;;;;13.85;100.00;99012.33;1628480;86;28120;-83
2022/05/09 01:28:00;;;;;;;9.50;7.70;;;;;;;13.93;100.00;99009.95;1625758;86;28495;-82
2022/05/09 01:30:49;;;;;;;11.28;7.40;;;;;;;13.99;100.00;99009.51;1626986;86;28115;-83
2022/05/09 01:33:21;;;;;;;13.70;8.08;;;;;;;14.03;100.00;99007.47;1619568;87;28096;-83
2022/05/09 01:35:57;;;;;;;9.58;7.28;;;;;;;14.06;100.00;99012.05;1623324;86;28105;-82
2022/05/09 01:38:35;;;;;;;14.05;7.78;;;;;;;14.09;100.00;99015.76;1622810;86;28103;-82
2022/05/09 01:41:02;;;;;;;10.72;7.62;;;;;;;14.10;100.00;99016.59;1624167;86;28112;-82
2022/05/09 01:43:44;;;;;;;10.68;7.83;;;;;;;14.10;100.00;99016.59;1625463;86;28096;-83
2022/05/09 01:46:13;;;;;;;13.38;8.05;;;;;;;13.97;100.00;99017.14;1630691;86;28088;-83
2022/05/09 01:51:25;;;;;;;13.03;8.40;;;;;;;13.80;100.00;99023.67;1625845;86;28144;-82
2022/05/09 01:53:52;;;;;;;11.25;7.37;;;;;;;13.75;100.00;99019.20;1621973;86;28119;-82
2022/05/09 01:56:21;;;;;;;10.32;7.53;;;;;;;13.80;100.00;99023.67;1625003;86;28069;-82
2022/05/09 01:58:53;;;;;;;10.28;7.25;;;;;;;13.82;100.00;99022.59;1625267;86;28204;-82
2022/05/09 02:01:23;;;;;;;8.90;7.62;;;;;;;13.76;100.00;99022.20;1624475;86;28152;-82
2022/05/09 02:03:50;;;;;;;10.60;8.30;;;;;;;13.78;100.00;99019.83;1622120;86;28103;-83
2022/05/09 02:06:18;;;;;;;8.63;6.70;;;;;;;13.80;100.00;99016.59;1624923;86;28185;-84
2022/05/09 02:08:46;;;;;;;9.15;7.05;;;;;;;13.82;100.00;99027.02;1622442;86;28089;-83
2022/05/09 02:11:13;;;;;;;9.38;7.50;;;;;;;13.78;100.00;99022.94;1625933;86;28027;-84
2022/05/09 02:13:39;;;;;;;9.28;8.18;;;;;;;13.78;100.00;99030.36;1648929;85;28103;-84
2022/05/09 02:16:06;;;;;;;10.20;7.30;;;;;;;13.77;100.00;99033.94;1631300;86;28064;-84
2022/05/09 02:18:33;;;;;;;9.43;7.22;;;;;;;13.59;100.00;99033.11;1649944;84;28137;-83
2022/05/09 02:20:59;;;;;;;10.15;7.78;;;;;;;13.40;100.00;99033.61;1647559;84;28078;-84
2022/05/09 02:23:26;;;;;;;11.15;7.90;;;;;;;13.33;100.00;99037.62;1646765;85;28037;-84
2022/05/09 02:25:54;;;;;;;10.58;7.95;;;;;;;13.28;100.00;99033.16;1623332;85;28040;-84
2022/05/09 02:28:21;;;;;;;12.03;7.47;;;;;;;13.27;100.00;99040.68;1644380;86;28136;-84
2022/05/09 02:30:48;;;;;;;12.35;8.20;;;;;;;13.22;100.00;99038.86;1645866;86;28145;-84
2022/05/09 02:33:15;;;;;;;9.80;7.40;;;;;;;13.30;100.00;99041.33;1625550;86;27993;-84
2022/05/09 02:35:43;;;;;;;11.57;7.97;;;;;;;13.39;100.00;99038.50;1626450;86;28093;-83
2022/05/09 02:38:09;;;;;;;14.10;8.55;;;;;;;13.42;100.00;99035.64;1623337;86;28100;-83
2022/05/09 02:40:36;;;;;;;11.22;8.25;;;;;;;13.50;100.00;99045.14;1627529;86;28104;-83
2022/05/09 02:43:03;;;;;;;12.13;8.55;;;;;;;13.55;100.00;99040.86;1601238;88;28169;-83
2022/05/09 02:45:29;;;;;;;12.47;8.65;;;;;;;13.56;100.00;99047.34;1575790;90;28086;-83
2022/05/09 02:47:57;;;;;;;11.38;8.10;;;;;;;13.56;100.00;99047.81;1587176;88;28102;-82
2022/05/09 02:50:24;;;;;;;12.07;7.83;;;;;;;13.54;100.00;99051.85;1589911;88;28043;-83
2022/05/09 02:52:52;;;;;;;10.78;8.33;;;;;;;13.52;100.00;99046.36;1590391;88;28078;-83
2022/05/09 02:55:21;;;;;;;11.53;9.38;;;;;;;13.45;100.00;99043.80;1602800;88;28103;-82
2022/05/09 02:57:48;;;;;;;9.15;7.72;;;;;;;13.38;100.00;99039.44;1604839;88;28189;-83
2022/05/09 03:00:21;;;;;;;8.38;7.45;;;;;;;13.22;100.00;99042.33;1597287;88;28169;-82
2022/05/09 03:05:36;;;;;;;10.45;7.55;;;;;;;12.90;100.00;99051.13;1624925;87;28096;-83
2022/05/09 03:08:10;;;;;;;11.88;8.00;;;;;;;12.90;100.00;99051.59;1624441;86;28125;-83
2022/05/09 03:10:37;;;;;;;10.55;7.05;;;;;;;12.98;100.00;99051.41;1625117;86;28103;-84
2022/05/09 03:13:08;;;;;;;11.65;7.87;;;;;;;13.06;100.00;99050.89;1625645;87;28143;-83
2022/05/09 03:15:37;;;;;;;;;;;;;;;13.06;100.00;99056.63;1629946;86;28039;-83
2022/05/09 03:18:05;;;;;;;12.13;7.20;;;;;;;13.02;100.00;99051.22;1624794;86;22203;-83
2022/05/09 03:20:31;;;;;;;11.80;7.30;;;;;;;13.03;100.00;99054.22;1624062;86;28068;-83
2022/05/09 03:22:57;;;;;;;12.60;7.78;;;;;;;13.04;100.00;99054.09;1623413;86;28136;-83
2022/05/09 03:25:27;;;;;;;10.85;7.20;;;;;;;13.06;100.00;99051.36;1624286;86;28183;-83
2022/05/09 03:27:54;;;;;;;11.78;7.53;;;;;;;13.03;100.00;99054.22;1625107;86;28135;-84
2022/05/09 03:30:21;;;;;;;11.30;8.25;;;;;;;13.03;100.00;99057.69;1624004;86;28105;-83
2022/05/09 03:32:52;;;;;;;11.43;7.33;;;;;;;13.04;100.00;99059.84;1624948;86;28107;-83
2022/05/09 03:35:19;;;;;;;;;;;;;;;13.03;100.00;99060.79;1584075;88;28093;-83
2022/05/09 03:37:45;;;;;;;11.35;7.92;;;;;;;13.04;100.00;99064.60;1623632;87;20249;-82
2022/05/09 03:40:12;;;;;;;12.88;7.58;;;;;;;13.04;100.00;99062.48;1622581;87;28116;-83
2022/05/09 03:42:41;;;;;;;10.43;7.72;;;;;;;13.02;100.00;99064.36;1642845;84;28120;-83
2022/05/09 03:45:08;;;;;;;12.68;8.65;;;;;;;12.98;100.00;99062.43;1617310;87;28148;-84
2022/05/09 03:47:34;;;;;;;12.07;8.33;;;;;;;12.94;100.00;99064.41;1620809;86;28138;-84
2022/05/09 03:50:00;;;;;;;15.08;9.90;;;;;;;12.88;100.00;99070.08;1621951;86;28119;-83
2022/05/09 03:52:26;;;;;;;10.35;7.60;;;;;;;12.84;100.00;99075.19;1636625;85;28133;-83
2022/05/09 03:54:53;;;;;;;12.40;8.03;;;;;;;12.89;100.00;99072.23;1619812;86;28178;-83
2022/05/09 03:57:19;;;;;;;13.48;8.53;;;;;;;12.83;100.00;99072.66;1618655;88;28119;-83
2022/05/09 03:59:45;;;;;;;12.82;9.10;;;;;;;12.84;100.00;99074.34;1626173;86;28010;-83
2022/05/09 04:02:12;;;;;;;11.10;8.05;;;;;;;12.89;100.00;99080.97;1627251;86;28151;-82
2022/05/09 04:04:38;;;;;;;13.88;8.43;;;;;;;12.85;100.00;99078.66;1625603;86;28104;-83
2022/05/09 04:07:05;;;;;;;10.30;7.55;;;;;;;12.84;100.00;99083.54;1644205;85;28125;-83
2022/05/09 04:09:31;;;;;;;11.45;8.08;;;;;;;12.80;100.00;99087.33;1646775;86;28058;-83
2022/05/09 04:11:57;;;;;;;9.80;7.50;;;;;;;12.74;100.00;99088.59;1615395;87;28158;-84
2022/05/09 04:17:10;;;;;;;11.85;8.68;;;;;;;12.70;100.00;99094.16;1617034;86;28134;-82
2022/05/09 04:19:38;;;;;;;12.70;8.23;;;;;;;12.77;100.00;99090.99;1644319;84;28138;-83
2022/05/09 04:22:06;;;;;;;10.23;8.30;;;;;;;12.77;100.00;99088.84;1618311;86;28085;-82
2022/05/09 04:24:33;;;;;;;12.60;8.20;;;;;;;12.68;100.00;99091.63;1618963;86;28072;-83
2022/05/09 04:27:00;;;;;;;10.25;7.72;;;;;;;12.58;100.00;99087.95;1615999;87;28116;-82
2022/05/09 04:29:27;;;;;;;9.90;7.55;;;;;;;12.52;100.00;99088.36;1642693;85;28070;-82
2022/05/09 04:31:54;;;;;;;10.70;7.67;;;;;;;12.48;100.00;99090.36;1648468;84;28163;-83
2022/05/09 04:34:21;;;;;;;9.60;7.95;;;;;;;12.62;100.00;99099.08;1642617;85;28109;-82
2022/05/09 04:36:47;;;;;;;12.68;8.38;;;;;;;12.69;100.00;99105.13;1617184;86;28197;-83
2022/05/09 04:39:15;;;;;;;11.85;7.60;;;;;;;12.67;100.00;99107.48;1619325;86;28029;-83
2022/05/09 04:41:41;;;;;;;9.08;7.45;;;;;;;12.65;100.00;99110.70;1616226;86;28092;-82
2022/05/09 04:44:08;;;;;;;9.70;6.78;;;;;;;12.73;100.00;99114.95;1612275;86;28043;-82
2022/05/09 04:46:35;;;;;;;10.78;7.42;;;;;;;12.78;100.00;99120.26;1614620;86;28200;-82
2022/05/09 04:49:01;;;;;;;13.50;8.60;;;;;;;12.84;100.00;99116.37;1616926;85;28107;-83
2022/05/09 04:51:28;;;;;;;14.18;9.00;;;;;;;12.92;100.00;99125.44;1614785;86;28219;-82
2022/05/09 04:53:54;;;;;;;11.05;8.40;;;;;;;12.93;100.00;99123.15;1628301;86;28159;-82
2022/05/09 04:56:20;;;;;;;11.10;8.33;;;;;;;12.95;100.00;99123.89;1628427;87;28103;-82
2022/05/09 04:58:47;;;;;;;10.50;8.00;;;;;;;13.00;100.00;99119.16;1628275;86;28124;-82
2022/05/09 05:01:13;;;;;;;12.78;8.23;;;;;;;13.02;100.00;99123.01;1630434;86;28040;-82
2022/05/09 05:03:40;;;;;;;12.70;8.65;;;;;;;13.07;100.00;99123.53;1629115;87;28097;-82
2022/05/09 05:06:12;;;;;;;11.60;8.20;;;;;;;13.14;100.00;99122.67;1630496;86;28057;-82
2022/05/09 05:08:38;;;;;;;11.68;7.85;;;;;;;13.16;100.00;99129.95;1624329;86;28101;-83
2022/05/09 05:11:05;;;;;;;10.08;7.62;;;;;;;13.22;100.00;99128.22;1627961;87;28017;-83
2022/05/09 05:13:37;;;;;;;14.93;8.93;;;;;;;13.24;100.00;99133.75;1629197;86;28089;-83
2022/05/09 05:16:00;;;;;;;9.38;8.08;;;;;;;13.30;100.00;99135.11;1628679;86;28084;-84
2022/05/09 05:18:28;;;;;;;12.47;8.80;;;;;;;13.35;100.00;99133.00;1632157;86;28138;-83
2022/05/09 05:20:55;;;;;;;12.47;8.73;;;;;;;13.44;100.00;99134.98;1631183;86;28213;-83
2022/05/09 05:23:22;;;;;;;12.18;9.45;;;;;;;13.58;100.00;99141.91;1629010;86;28115;-83
2022/05/09 05:25:48;;;;;;;25.32;19.87;;;;;;;13.72;100.00;99142.60;1608091;87;28128;-83
2022/05/09 05:28:16;;;;;;;20.45;12.40;;;;;;;13.88;100.00;99139.70;1626185;87;28174;-84
2022/05/09 05:30:43;;;;;;;13.38;9.73;;;;;;;14.05;100.00;99142.44;1628642;87;28076;-83
2022/05/09 05:33:10;;;;;;;15.28;9.40;;;;;;;14.23;100.00;99147.69;1627597;87;28095;-83
2022/05/09 05:35:36;;;;;;;11.15;8.78;;;;;;;14.25;100.00;99145.76;1628835;86;28088;-83
2022/05/09 05:38:02;;;;;;;12.40;8.48;;;;;;;14.20;100.00;99141.31;1627573;87;28096;-82
2022/05/09 05:40:29;;;;;;;14.47;8.43;;;;;;;14.17;100.00;99144.19;1630195;87;28084;-83
2022/05/09 05:42:55;;;;;;;12.23;9.10;;;;;;;14.15;100.00;99139.49;1627945;86;28131;-84
2022/05/09 05:45:23;;;;;;;11.93;7.70;;;;;;;14.11;100.00;99144.16;1638956;86;28069;-83
2022/05/09 05:47:51;;;;;;;7.70;6.28;;;;;;;14.10;100.00;99144.25;1639646;86;28107;-83
2022/05/09 05:50:20;;;;;;;10.82;6.75;;;;;;;14.05;100.00;99145.91;1612227;88;28117;-84
2022/05/09 05:52:46;;;;;;;10.43;6.78;;;;;;;14.01;100.00;99144.94;1612323;87;28056;-84
2022/05/09 05:55:13;;;;;;;12.25;7.62;;;;;;;13.99;100.00;99141.56;1614471;86;28191;-83
2022/05/09 05:57:42;;;;;;;8.95;7.35;;;;;;;13.95;100.00;99147.53;1612204;86;28093;-83
2022/05/09 06:00:19;;;;;;;12.13;7.45;;;;;;;13.93;100.00;99152.53;1612488;88;28199;-83
2022/05/09 06:02:48;;;;;;;10.93;7.40;;;;;;;13.93;100.00;99153.38;1612014;87;28116;-84
2022/05/09 06:05:16;;;;;;;10.75;8.15;;;;;;;13.98;100.00;99151.25;1612620;87;28191;-84
2022/05/09 06:07:43;;;;;;;8.40;6.65;;;;;;;14.06;100.00;99155.97;1611881;87;28147;-84
2022/05/09 06:10:12;;;;;;;8.20;6.30;;;;;;;14.09;100.00;99156.57;1595553;87;28113;-84
2022/05/09 06:12:40;;;;;;;8.55;6.05;;;;;;;14.12;100.00;99159.47;1614546;86;28168;-84
2022/05/09 06:15:25;;;;;;;9.20;6.67;;;;;;;14.13;100.00;99159.34;1612295;87;28100;-83
2022/05/09 06:17:53;;;;;;;7.83;6.15;;;;;;;14.18;100.00;99158.52;1611893;87;28236;-83
2022/05/09 06:20:20;;;;;;;8.33;7.20;;;;;;;14.23;100.00;99161.69;1630443;86;28114;-83
2022/05/09 06:22:46;;;;;;;8.60;6.55;;;;;;;14.31;100.00;99168.17;1629930;86;28024;-83
2022/05/09 06:25:16;;;;;;;10.10;6.45;;;;;;;14.46;100.00;99170.54;1629865;87;28088;-84
2022/05/09 06:27:52;;;;;;;9.43;7.10;;;;;;;14.58;100.00;99166.16;1628562;86;28073;-84
2022/05/09 06:30:26;;;;;;;8.15;6.20;;;;;;;14.73;100.00;99166.83;1607557;87;28107;-84
2022/05/09 06:32:52;;;;;;;7.90;6.80;;;;;;;14.87;100.00;99161.34;1624925;87;28096;-84
2022/05/09 06:35:24;;;;;;;7.40;6.30;;;;;;;15.01;100.00;99163.76;1629888;86;28065;-83
2022/05/09 06:38:02;;;;;;;10.80;6.28;;;;;;;15.16;100.00;99164.41;1629093;87;28078;-83
2022/05/09 06:40:31;;;;;;;10.58;8.40;;;;;;;15.28;100.00;99167.39;1624893;87;28106;-84
2022/05/09 06:42:58;;;;;;;7.55;6.30;;;;;;;15.35;100.00;99172.08;1614686;87;28136;-83
2022/05/09 06:45:25;;;;;;;11.20;8.00;;;;;;;15.36;100.00;99171.13;1644340;85;28090;-83
2022/05/09 06:47:54;;;;;;;8.70;7.25;;;;;;;15.36;100.00;99176.41;1597864;88;28081;-83
2022/05/09 06:50:22;;;;;;;10.08;6.83;;;;;;;15.33;100.00;99170.03;1613036;87;28097;-83
2022/05/09 06:52:49;;;;;;;9.48;6.20;;;;;;;15.29;100.00;99168.59;1608133;87;28222;-83
2022/05/09 06:55:17;;;;;;;7.37;6.67;;;;;;;15.33;100.00;99175.78;1636217;86;28095;-83
2022/05/09 06:57:46;;;;;;;8.18;5.72;;;;;;;15.37;100.00;99172.81;1609949;87;28071;-83
2022/05/09 07:00:15;;;;;;;8.58;5.72;;;;;;;15.42;100.00;99169.81;1611009;87;28126;-83
2022/05/09 07:02:44;;;;;;;7.20;5.62;;;;;;;15.43;100.00;99171.50;1610091;87;28158;-83
2022/05/09 07:05:12;;;;;;;8.68;5.87;;;;;;;15.47;100.00;99168.50;1636292;85;28085;-83
2022/05/09 07:07:40;;;;;;;6.70;5.45;;;;;;;15.52;100.00;99168.64;1635719;87;28168;-83
2022/05/09 07:10:08;;;;;;;6.45;5.00;;;;;;;15.56;100.00;99168.75;1637150;85;28093;-83
2022/05/09 07:12:54;;;;;;;5.30;4.80;;;;;;;15.59;100.00;99165.89;1598964;88;28115;-83
2022/05/09 07:15:27;;;;;;;10.20;5.25;;;;;;;15.62;100.00;99168.27;1636000;85;28085;-84
2022/05/09 07:17:54;;;;;;;9.63;5.35;;;;;;;15.68;100.00;99171.27;1636674;87;28109;-82
2022/05/09 07:20:25;;;;;;;6.87;4.35;;;;;;;15.72;100.00;99174.50;1616936;87;28073;-82
2022/05/09 07:22:53;;;;;;;5.15;4.60;;;;;;;15.79;100.00;99173.06;1614669;86;28207;-83
2022/05/09 07:25:26;;;;;;;5.65;4.35;;;;;;;15.81;100.00;99172.47;1606380;87;28081;-83
2022/05/09 07:27:53;;;;;;;4.83;3.65;;;;;;;15.88;100.00;99168.36;1608613;88;28100;-83
2022/05/09 07:30:23;;;;;;;5.22;3.33;;;;;;;15.97;100.00;99172.92;1609572;88;28157;-83
2022/05/09 07:32:51;;;;;;;4.42;3.30;;;;;;;16.05;100.00;99170.50;1611401;86;28070;-83
2022/05/09 07:35:18;;;;;;;3.92;2.80;;;;;;;16.15;100.00;99170.59;1609691;86;28182;-83
2022/05/09 07:37:46;;;;;;;6.87;3.42;;;;;;;16.23;100.00;99170.81;1610479;87;28145;-83
2022/05/09 07:40:15;;;;;;;5.53;3.60;;;;;;;16.30;100.00;99176.81;1608917;88;28010;-83
2022/05/09 07:42:43;;;;;;;5.03;3.00;;;;;;;16.33;100.00;99175.23;1614892;86;28092;-83
2022/05/09 07:45:15;;;;;;;5.20;3.30;;;;;;;16.41;100.00;99174.61;1616926;86;28096;-83
2022/05/09 07:47:41;;;;;;;4.47;3.83;;;;;;;16.49;100.00;99177.45;1624715;86;28073;-83
2022/05/09 07:50:10;;;;;;;7.00;4.05;;;;;;;16.55;100.00;99175.63;1629772;85;28178;-83
2022/05/09 07:52:42;;;;;;;4.10;3.30;;;;;;;16.60;100.00;99172.63;1634271;85;28143;-83
2022/05/09 07:55:16;;;;;;;5.92;3.52;;;;;;;16.71;100.00;99173.42;1631834;87;28104;-83
2022/05/09 07:57:48;;;;;;;4.75;3.33;;;;;;;16.85;100.00;99174.92;1633470;87;28091;-84
2022/05/09 08:00:19;;;;;;;6.15;3.02;;;;;;;16.90;100.00;99171.41;1647623;86;28089;-83
2022/05/09 08:02:47;;;;;;;5.03;3.30;;;;;;;16.88;100.00;99177.30;1627893;86;28193;-83
2022/05/09 08:05:14;;;;;;;4.15;2.80;;;;;;;16.89;100.00;99181.62;1629634;87;28077;-83
2022/05/09 08:07:47;;;;;;;2.85;2.45;;;;;;;16.98;100.00;99170.27;1634740;85;28091;-83
2022/05/09 08:10:15;;;;;;;4.35;3.00;;;;;;;17.08;100.00;99169.84;1631265;87;28193;-83
2022/05/09 08:12:43;;;;;;;4.30;2.83;;;;;;;17.14;100.00;99172.45;1618809;86;28103;-83
2022/05/09 08:15:12;;;;;;;4.28;2.70;;;;;;;17.18;100.00;99173.89;1648120;86;28093;-83
2022/05/09 08:17:38;;;;;;;4.50;3.00;;;;;;;17.17;100.00;99174.85;1640335;86;28487;-83
2022/05/09 08:20:06;;;;;;;3.65;2.67;;;;;;;17.19;100.00;99172.89;1642440;86;28137;-83
2022/05/09 08:22:33;;;;;;;5.22;2.98;;;;;;;17.22;100.00;99176.62;1629756;86;28077;-83
2022/05/09 08:25:00;;;;;;;3.85;2.85;;;;;;;17.27;100.00;99163.83;1644815;86;28095;-83
2022/05/09 08:27:34;;;;;;;4.83;3.47;;;;;;;17.32;100.00;99170.89;1643556;86;28149;-83
2022/05/09 08:30:01;;;;;;;4.65;2.70;;;;;;;17.33;100.00;99167.77;1614489;86;28157;-83
2022/05/09 08:32:28;;;;;;;4.33;2.70;;;;;;;17.43;100.00;99164.67;1637308;86;28111;-83
2022/05/09 08:34:55;;;;;;;4.33;2.83;;;;;;;17.55;100.00;99176.38;1638218;87;28010;-83
2022/05/09 08:37:24;;;;;;;4.20;2.37;;;;;;;17.59;100.00;99174.28;1627451;87;28074;-83
2022/05/09 08:39:56;;;;;;;3.05;2.10;;;;;;;17.61;100.00;99168.89;1616594;86;28073;-83
2022/05/09 08:42:36;;;;;;;3.22;2.70;;;;;;;17.72;100.00;99177.58;1638696;84;28058;-84
2022/05/09 08:45:09;;;;;;;3.20;2.90;;;;;;;17.80;100.00;99172.92;1606264;88;28005;-83
2022/05/09 08:47:57;;;;;;;3.83;2.80;;;;;;;17.89;100.00;99177.43;1612724;86;28139;-83
2022/05/09 08:50:30;;;;;;;2.95;2.52;;;;;;;17.94;100.00;99177.86;1609083;88;28097;-83
2022/05/09 08:53:05;;;;;;;4.10;2.87;;;;;;;18.03;100.00;99178.84;1605740;88;28044;-84
2022/05/09 08:55:36;;;;;;;4.33;2.80;;;;;;;18.06;100.00;99177.23;1611767;86;28164;-83
2022/05/09 08:58:37;;;;;;;5.12;2.87;;;;;;;18.06;100.00;99185.19;1582376;88;28081;-83
2022/05/09 09:01:03;;;;;;;6.05;3.00;;;;;;;18.05;100.00;99179.08;1621368;86;28089;-84
2022/05/09 09:03:32;;;;;;;4.53;2.60;;;;;;;18.03;100.00;99183.66;1607535;87;28146;-84
2022/05/09 09:06:11;;;;;;;4.87;2.72;;;;;;;18.11;100.00;99183.00;1626461;85;28117;-83
2022/05/09 09:08:47;;;;;;;3.62;2.65;;;;;;;18.15;100.00;99190.53;1600604;87;28153;-84
2022/05/09 09:11:29;;;;;;;3.25;2.05;;;;;;;18.11;100.00;99190.42;1618529;87;28109;-83
2022/05/09 09:13:58;;;;;;;2.80;2.47;;;;;;;18.05;100.00;99199.42;1613896;88;28062;-83
2022/05/09 09:16:34;;;;;;;5.60;2.75;;;;;;;18.00;100.00;99191.05;1613045;87;28029;-83
2022/05/09 09:19:25;;;;;;;3.35;2.47;;;;;;;18.00;100.00;99193.22;1587237;87;28075;-83
2022/05/09 09:22:23;;;;;;;2.45;1.70;;;;;;;18.06;100.00;99185.19;1613525;88;28179;-83
2022/05/09 09:25:08;;;;;;;4.55;1.90;;;;;;;18.20;100.00;99196.25;1613053;88;28097;-84
2022/05/09 09:27:47;;;;;;;3.47;1.98;;;;;;;18.24;100.00;99188.38;1593278;88;28036;-84
2022/05/09 09:30:17;;;;;;;4.17;2.42;;;;;;;18.31;100.00;99192.64;1614704;88;28096;-86
2022/05/09 09:32:51;;;;;;;2.65;2.17;;;;;;;18.36;100.00;99193.91;1615249;86;28193;-83
2022/05/09 09:35:44;;;;;;;2.62;2.02;;;;;;;18.39;100.00;99191.45;1609255;88;28084;-84
2022/05/09 09:38:43;;;;;;;2.87;1.90;;;;;;;18.44;100.00;99195.04;1609153;86;28083;-84
2022/05/09 09:41:23;;;;;;;4.10;2.20;;;;;;;18.57;100.00;99188.51;1604374;87;28087;-83
2022/05/09 09:43:53;;;;;;;3.37;2.00;;;;;;;18.65;100.00;99189.99;1621830;87;28093;-83
2022/05/09 09:46:19;;;;;;;3.02;2.00;;;;;;;18.66;100.00;99185.02;1624392;87;28103;-84
2022/05/09 09:48:47;;;;;;;2.65;2.00;;;;;;;18.80;100.00;99183.77;1620636;87;28159;-84
2022/05/09 09:51:17;;;;;;;3.98;2.72;;;;;;;18.85;100.00;99192.14;1624422;86;28198;-84
2022/05/09 09:53:50;;;;;;;3.30;2.10;;;;;;;18.89;99.08;99185.56;1625098;87;28080;-83
2022/05/09 09:56:25;;;;;;;4.42;2.20;;;;;;;18.94;98.38;99179.83;1625304;85;28092;-83
2022/05/09 09:58:57;;;;;;;3.02;1.90;;;;;;;18.95;97.56;99182.34;1624898;86;28093;-84
2022/05/09 10:01:27;;;;;;;3.65;1.92;;;;;;;18.95;96.61;99182.84;1625162;86;28100;-83
2022/05/09 10:04:12;;;;;;;2.25;1.85;;;;;;;18.93;95.24;99180.31;1623440;87;28174;-83
2022/05/09 10:07:12;;;;;;;3.95;2.00;;;;;;;18.91;94.34;99176.15;1622633;87;28088;-84
2022/05/09 10:09:42;;;;;;;4.58;1.90;;;;;;;18.91;93.69;99180.13;1624723;86;28139;-84
2022/05/09 10:12:21;;;;;;;4.53;2.15;;;;;;;18.86;92.72;99181.05;1625528;85;28160;-83
2022/05/09 10:14:54;;;;;;;3.15;2.20;;;;;;;18.87;92.14;99177.42;1624392;86;28100;-84
2022/05/09 10:17:27;;;;;;;2.72;2.25;;;;;;;19.04;92.13;99174.86;1626223;85;28084;-83
2022/05/09 10:20:03;;;;;;;3.17;1.92;;;;;;;19.16;91.87;99177.70;1626985;86;28096;-83
2022/05/09 10:25:28;;;;;;;2.22;1.70;;;;;;;19.19;90.07;99175.27;1624483;86;28159;-83
2022/05/09 10:28:16;;;;;;;4.80;1.87;;;;;;;19.19;88.92;99171.28;1603560;87;28098;-83
2022/05/09 10:30:54;;;;;;;2.37;1.57;;;;;;;19.22;87.99;99167.00;1628808;85;28125;-84
2022/05/09 10:33:24;;;;;;;3.80;1.90;;;;;;;19.36;87.99;99170.55;1624729;86;28084;-84
2022/05/09 10:35:54;;;;;;;2.17;1.70;;;;;;;19.35;86.83;99169.35;1626350;85;28150;-84
2022/05/09 10:38:42;;;;;;;3.10;1.75;;;;;;;19.31;85.94;99169.30;1622202;86;28179;-84
2022/05/09 10:41:21;;;;;;;3.22;1.70;;;;;;;19.25;84.68;99165.41;1618856;87;28097;-83
2022/05/09 10:44:10;;;;;;;2.15;1.67;;;;;;;19.24;83.63;99166.38;1612670;86;28091;-84
2022/05/09 10:46:45;;;;;;;3.40;1.70;;;;;;;19.19;82.92;99158.02;1632257;87;28041;-84
2022/05/09 10:49:32;;;;;;;4.60;1.82;;;;;;;19.20;82.24;99159.17;1631641;87;28151;-84
2022/05/09 10:52:16;;;;;;;3.72;2.40;;;;;;;19.26;82.00;99164.89;1655104;85;28140;-84
2022/05/09 10:54:52;;;;;;;4.45;1.82;;;;;;;19.30;81.35;99155.19;1626355;87;28132;-84
2022/05/09 10:57:40;;;;;;;4.00;1.95;;;;;;;19.35;80.96;99144.98;1617107;87;28176;-83
2022/05/09 11:00:18;;;;;;;4.97;2.22;;;;;;;19.44;80.52;99151.22;1631763;86;28126;-83
2022/05/09 11:02:45;;;;;;;5.35;2.17;;;;;;;19.62;80.46;99153.00;1627197;86;28068;-83
2022/05/09 11:05:17;;;;;;;2.87;1.80;;;;;;;19.71;79.96;99147.77;1614029;87;28549;-83
2022/05/09 11:07:47;;;;;;;2.98;1.72;;;;;;;19.71;79.21;99144.62;1616988;87;28081;-83
2022/05/09 11:10:20;;;;;;;2.42;1.55;;;;;;;19.70;78.12;99139.45;1615581;87;28122;-84
2022/05/09 11:12:53;;;;;;;4.53;2.12;;;;;;;19.73;77.82;99140.02;1598908;87;28144;-83
2022/05/09 11:15:41;;;;;;;1.95;1.60;;;;;;;19.71;76.33;99137.16;1651259;85;28120;-83
2022/05/09 11:18:23;;;;;;;2.33;1.70;;;;;;;19.74;75.67;99127.09;1642913;86;28157;-84
2022/05/09 11:21:05;;;;;;;2.72;1.60;;;;;;;19.88;75.45;99131.05;1629701;87;28187;-84
2022/05/09 11:23:41;;;;;;;2.60;1.80;;;;;;;19.91;74.77;99132.09;1622668;87;28167;-83
2022/05/09 11:26:28;;;;;;;2.72;1.92;;;;;;;19.97;74.58;99132.80;1621714;87;28043;-83
2022/05/09 11:29:14;;;;;;;5.30;2.00;;;;;;;20.05;74.53;99133.75;1631698;86;28161;-83
2022/05/09 11:32:04;;;;;;;2.80;2.17;;;;;;;20.21;74.59;99127.76;1633885;86;28091;-83
2022/05/09 11:35:01;;;;;;;3.92;2.80;;;;;;;20.20;73.74;99123.91;1626576;86;28064;-83
2022/05/09 11:38:01;;;;;;;4.55;1.70;;;;;;;20.26;73.05;99120.66;1623759;86;28100;-84
2022/05/09 11:40:41;;;;;;;2.40;1.57;;;;;;;20.40;72.78;99119.65;1635895;86;28048;-83
2022/05/09 11:43:27;;;;;;;3.02;1.80;;;;;;;20.46;71.98;99121.70;1632472;85;28118;-84
2022/05/09 11:46:14;;;;;;;3.00;1.80;;;;;;;20.60;71.80;99108.87;1637775;85;28081;-84
2022/05/09 11:48:54;;;;;;;3.17;1.90;;;;;;;20.64;70.94;99107.56;1636665;84;28088;-83
2022/05/09 11:51:44;;;;;;;4.12;2.12;;;;;;;20.59;69.78;99105.86;1630624;85;28166;-83
2022/05/09 11:54:16;;;;;;;3.15;1.70;;;;;;;20.54;68.40;99106.81;1632691;85;28163;-84